Time;durP1;ratioP1;P1;durP2;ratioP2;P2;SDS_P1;SDS_P2;PMS_P1;PMS_P2;Temp;Humidity;BMP_temperature;BMP_pressure;BME280_temperature;BME280_humidity;BME280_pressure;Samples;Min_cycle;Max_cycle;Signal;HPM_P1;HPM_P2
2023/10/26 00:02:07;;;;;;;;;;;11.60;99.90;;;;;;5100098;28;19916;-70
2023/10/26 00:04:33;;;;;;;;;;;11.60;99.90;;;;;;5098206;28;20395;-70
2023/10/26 00:07:00;;;;;;;;;;;11.60;99.90;;;;;;5116001;27;19937;-70
2023/10/26 00:09:26;;;;;;;;;;;11.60;99.90;;;;;;5111426;28;19923;-70
2023/10/26 00:11:52;;;;;;;;;;;11.60;99.90;;;;;;5108703;27;20728;-70
2023/10/26 00:14:17;;;;;;;;;;;11.60;99.90;;;;;;5108695;28;19912;-70
2023/10/26 00:16:43;;;;;;;;;;;11.60;99.90;;;;;;5108027;28;19912;-70
2023/10/26 00:19:08;;;;;;;;;;;11.60;99.90;;;;;;5106606;28;19908;-70
2023/10/26 00:21:34;;;;;;;;;;;11.60;99.90;;;;;;5108966;28;19908;-70
2023/10/26 00:23:59;;;;;;;;;;;11.60;99.90;;;;;;5115730;27;19918;-70
2023/10/26 00:26:25;;;;;;;;;;;11.60;99.90;;;;;;5115835;27;19938;-71
2023/10/26 00:28:50;;;;;;;;;;;11.60;99.90;;;;;;5112843;27;20367;-71
2023/10/26 00:31:16;;;;;;;;;;;11.60;99.90;;;;;;5112954;28;19916;-71
2023/10/26 00:33:41;;;;;;;;;;;11.60;99.90;;;;;;5119615;27;19919;-71
2023/10/26 00:36:07;;;;;;;;;;;11.60;99.90;;;;;;5133872;27;19919;-71
2023/10/26 00:38:33;;;;;;;;;;;11.60;99.90;;;;;;5117033;27;19907;-71
2023/10/26 00:40:58;;;;;;;;;;;11.60;99.90;;;;;;5111883;27;19916;-71
2023/10/26 00:43:24;;;;;;;;;;;11.60;99.90;;;;;;5114456;27;19955;-70
2023/10/26 00:45:51;;;;;;;;;;;11.60;99.90;;;;;;5112019;28;20249;-70
2023/10/26 00:48:17;;;;;;;;;;;11.60;99.90;;;;;;5110429;27;20356;-70
2023/10/26 00:50:43;;;;;;;;;;;11.50;99.90;;;;;;5112728;27;19941;-70
2023/10/26 00:53:12;;;;;;;;;;;11.50;99.90;;;;;;5109438;28;19939;-70
2023/10/26 00:55:39;;;;;;;;;;;11.60;99.90;;;;;;5119407;27;19911;-70
2023/10/26 00:58:05;;;;;;;;;;;11.60;99.90;;;;;;5126604;27;20488;-70
2023/10/26 01:00:31;;;;;;;;;;;11.50;99.90;;;;;;5118380;27;20284;-70
2023/10/26 01:02:56;;;;;;;;;;;11.50;99.90;;;;;;5109980;27;19972;-70
2023/10/26 01:05:22;;;;;;;;;;;11.50;99.90;;;;;;5119661;27;19915;-70
2023/10/26 01:07:47;;;;;;;;;;;11.50;99.90;;;;;;5103392;27;19912;-70
2023/10/26 01:10:13;;;;;;;;;;;11.50;99.90;;;;;;5096697;28;19912;-70
2023/10/26 01:12:39;;;;;;;;;;;11.50;99.90;;;;;;5128726;27;19911;-70
2023/10/26 01:15:05;;;;;;;;;;;11.50;99.90;;;;;;5111343;28;19908;-70
2023/10/26 01:17:31;;;;;;;;;;;11.50;99.90;;;;;;5110652;28;19911;-71
2023/10/26 01:19:56;;;;;;;;;;;11.50;99.90;;;;;;5111237;28;19935;-71
2023/10/26 01:22:28;;;;;;;;;;;11.50;99.90;;;;;;5111039;28;19920;-71
2023/10/26 01:24:53;;;;;;;;;;;11.50;99.90;;;;;;5109060;27;19922;-71
2023/10/26 01:27:19;;;;;;;;;;;11.50;99.90;;;;;;5110837;28;19911;-71
2023/10/26 01:29:44;;;;;;;;;;;11.50;99.90;;;;;;5107241;27;19908;-70
2023/10/26 01:32:10;;;;;;;;;;;11.50;99.90;;;;;;5096518;28;19950;-70
2023/10/26 01:34:35;;;;;;;;;;;11.50;99.90;;;;;;5108652;28;19999;-70
2023/10/26 01:37:02;;;;;;;;;;;11.50;99.90;;;;;;5111172;28;20269;-70
2023/10/26 01:39:28;;;;;;;;;;;11.50;99.90;;;;;;5109279;28;19911;-70
2023/10/26 01:41:53;;;;;;;;;;;11.50;99.90;;;;;;5110809;28;19919;-70
2023/10/26 01:44:19;;;;;;;;;;;11.50;99.90;;;;;;5111246;28;19953;-70
2023/10/26 01:46:44;;;;;;;;;;;11.50;99.90;;;;;;5110793;28;20557;-70
2023/10/26 01:49:10;;;;;;;;;;;11.40;99.90;;;;;;5103676;28;19927;-70
2023/10/26 01:51:35;;;;;;;;;;;11.50;99.90;;;;;;5123334;27;20392;-70
2023/10/26 01:54:01;;;;;;;;;;;11.50;99.90;;;;;;5105273;27;19914;-70
2023/10/26 01:56:27;;;;;;;;;;;11.50;99.90;;;;;;5109382;28;19912;-70
2023/10/26 01:58:52;;;;;;;;;;;11.50;99.90;;;;;;5105220;28;20576;-70
2023/10/26 02:01:18;;;;;;;;;;;11.40;99.90;;;;;;5110702;27;19927;-70
2023/10/26 02:03:43;;;;;;;;;;;11.50;99.90;;;;;;5116234;27;20284;-70
2023/10/26 02:06:09;;;;;;;;;;;11.40;99.90;;;;;;5110732;27;19908;-70
2023/10/26 02:08:34;;;;;;;;;;;11.40;99.90;;;;;;5110286;28;19918;-70
2023/10/26 02:11:00;;;;;;;;;;;11.50;99.90;;;;;;5111215;27;19912;-70
2023/10/26 02:13:25;;;;;;;;;;;11.40;99.90;;;;;;5113095;27;19977;-70
2023/10/26 02:15:51;;;;;;;;;;;11.40;99.90;;;;;;5100993;27;19908;-71
2023/10/26 02:18:16;;;;;;;;;;;11.40;99.90;;;;;;5109371;28;19915;-71
2023/10/26 02:20:42;;;;;;;;;;;11.40;99.90;;;;;;5110459;28;19994;-71
2023/10/26 02:23:07;;;;;;;;;;;11.50;99.90;;;;;;5105138;28;20029;-70
2023/10/26 02:25:33;;;;;;;;;;;11.40;99.90;;;;;;5107507;28;19918;-70
2023/10/26 02:27:58;;;;;;;;;;;11.40;99.90;;;;;;5114603;27;20246;-70
2023/10/26 02:30:24;;;;;;;;;;;11.40;99.90;;;;;;5097774;28;20076;-70
2023/10/26 02:32:49;;;;;;;;;;;11.40;99.90;;;;;;5110015;28;19912;-70
2023/10/26 02:35:16;;;;;;;;;;;11.40;99.90;;;;;;5110328;28;19918;-70
2023/10/26 02:37:42;;;;;;;;;;;11.40;99.90;;;;;;5111539;27;19954;-70
2023/10/26 02:40:10;;;;;;;;;;;11.40;99.90;;;;;;5116727;27;19985;-70
2023/10/26 02:42:36;;;;;;;;;;;11.40;99.90;;;;;;5117903;27;19919;-70
2023/10/26 02:45:03;;;;;;;;;;;11.40;99.90;;;;;;5125750;27;20268;-70
2023/10/26 02:47:29;;;;;;;;;;;11.40;99.90;;;;;;5108017;28;19915;-70
2023/10/26 02:49:54;;;;;;;;;;;11.40;99.90;;;;;;5108232;28;20342;-70
2023/10/26 02:52:20;;;;;;;;;;;11.40;99.90;;;;;;5109469;28;20368;-70
2023/10/26 02:54:45;;;;;;;;;;;11.40;99.90;;;;;;5116724;27;19934;-70
2023/10/26 02:57:11;;;;;;;;;;;11.40;99.90;;;;;;5107153;27;19911;-70
2023/10/26 02:59:36;;;;;;;;;;;11.30;99.90;;;;;;5108344;27;19935;-70
2023/10/26 03:02:04;;;;;;;;;;;11.40;99.90;;;;;;5109810;27;19916;-70
2023/10/26 03:04:31;;;;;;;;;;;11.40;99.90;;;;;;5109940;28;20027;-70
2023/10/26 03:06:56;;;;;;;;;;;11.40;99.90;;;;;;5109693;28;19974;-70
2023/10/26 03:09:22;;;;;;;;;;;11.30;99.90;;;;;;5100726;28;19961;-70
2023/10/26 03:11:48;;;;;;;;;;;11.30;99.90;;;;;;5109014;27;19912;-70
2023/10/26 03:14:14;;;;;;;;;;;11.40;99.90;;;;;;5109523;28;19995;-70
2023/10/26 03:16:39;;;;;;;;;;;11.30;99.90;;;;;;5108741;28;20018;-70
2023/10/26 03:19:05;;;;;;;;;;;11.30;99.90;;;;;;5095302;28;19927;-70
2023/10/26 03:21:31;;;;;;;;;;;11.30;99.90;;;;;;5088737;28;19912;-70
2023/10/26 03:23:56;;;;;;;;;;;11.40;99.90;;;;;;5108924;27;19916;-71
2023/10/26 03:26:23;;;;;;;;;;;11.30;99.90;;;;;;5108344;28;19934;-70
2023/10/26 03:28:49;;;;;;;;;;;11.30;99.90;;;;;;5104715;28;19912;-70
2023/10/26 03:31:14;;;;;;;;;;;11.30;99.90;;;;;;5129054;27;19916;-70
2023/10/26 03:33:40;;;;;;;;;;;11.40;99.90;;;;;;5106601;27;20376;-70
2023/10/26 03:36:15;;;;;;;;;;;11.30;99.90;;;;;;5116401;27;19923;-70
2023/10/26 03:38:41;;;;;;;;;;;11.30;99.90;;;;;;5107847;28;20002;-70
2023/10/26 03:41:07;;;;;;;;;;;11.30;99.90;;;;;;5108662;28;19961;-70
2023/10/26 03:43:32;;;;;;;;;;;11.30;99.90;;;;;;5104129;27;19916;-70
2023/10/26 03:45:58;;;;;;;;;;;11.30;99.90;;;;;;5101847;28;20304;-70
2023/10/26 03:48:23;;;;;;;;;;;11.30;99.90;;;;;;5102657;28;19912;-70
2023/10/26 03:50:49;;;;;;;;;;;11.30;99.90;;;;;;5106995;28;19940;-70
2023/10/26 03:53:14;;;;;;;;;;;11.30;99.90;;;;;;5118651;27;19954;-70
2023/10/26 03:55:40;;;;;;;;;;;11.30;99.90;;;;;;5108597;28;20440;-70
2023/10/26 03:58:05;;;;;;;;;;;11.30;99.90;;;;;;5113966;27;19912;-70
2023/10/26 04:00:30;;;;;;;;;;;11.30;99.90;;;;;;5108123;28;19976;-70
2023/10/26 04:02:56;;;;;;;;;;;11.30;99.90;;;;;;5098050;27;19927;-70
2023/10/26 04:05:21;;;;;;;;;;;11.30;99.90;;;;;;5088010;28;19908;-70
2023/10/26 04:07:47;;;;;;;;;;;11.30;99.90;;;;;;5098254;28;20003;-70
2023/10/26 04:10:12;;;;;;;;;;;11.30;99.90;;;;;;5108227;28;19962;-70
2023/10/26 04:12:38;;;;;;;;;;;11.30;99.90;;;;;;5102826;28;20412;-70
2023/10/26 04:15:04;;;;;;;;;;;11.30;99.90;;;;;;5114168;28;19983;-70
2023/10/26 04:17:29;;;;;;;;;;;11.30;99.90;;;;;;5106561;28;19915;-70
2023/10/26 04:19:56;;;;;;;;;;;11.30;99.90;;;;;;5108106;28;19912;-70
2023/10/26 04:22:22;;;;;;;;;;;11.30;99.90;;;;;;5108149;28;20041;-71
2023/10/26 04:24:47;;;;;;;;;;;11.30;99.90;;;;;;5107936;28;20029;-70
2023/10/26 04:27:13;;;;;;;;;;;11.30;99.90;;;;;;5099788;28;20355;-70
2023/10/26 04:29:38;;;;;;;;;;;11.30;99.90;;;;;;5112228;28;19963;-70
2023/10/26 04:32:04;;;;;;;;;;;11.30;99.90;;;;;;5104862;27;20360;-70
2023/10/26 04:34:30;;;;;;;;;;;11.30;99.90;;;;;;5100129;28;19919;-70
2023/10/26 04:36:55;;;;;;;;;;;11.30;99.90;;;;;;5107672;28;19962;-70
2023/10/26 04:39:22;;;;;;;;;;;11.30;99.90;;;;;;5107648;28;19916;-70
2023/10/26 04:41:47;;;;;;;;;;;11.30;99.90;;;;;;5108959;28;19915;-70
2023/10/26 04:44:13;;;;;;;;;;;11.30;99.90;;;;;;5114059;27;19922;-70
2023/10/26 04:46:39;;;;;;;;;;;11.30;99.90;;;;;;5106643;28;19912;-70
2023/10/26 04:49:04;;;;;;;;;;;11.30;99.90;;;;;;5092292;28;19907;-70
2023/10/26 04:51:31;;;;;;;;;;;11.20;99.90;;;;;;5107528;28;19912;-70
2023/10/26 04:53:57;;;;;;;;;;;11.30;99.90;;;;;;5093956;28;20360;-70
2023/10/26 04:56:23;;;;;;;;;;;11.30;99.90;;;;;;5106332;28;19911;-70
2023/10/26 04:58:48;;;;;;;;;;;11.20;99.90;;;;;;5109580;27;19923;-70
2023/10/26 05:01:14;;;;;;;;;;;11.20;99.90;;;;;;5122050;27;20045;-70
2023/10/26 05:03:39;;;;;;;;;;;11.30;99.90;;;;;;5115926;28;19915;-70
2023/10/26 05:06:05;;;;;;;;;;;11.30;99.90;;;;;;5107941;28;20360;-70
2023/10/26 05:08:30;;;;;;;;;;;11.30;99.90;;;;;;5108078;28;19911;-70
2023/10/26 05:10:56;;;;;;;;;;;11.30;99.90;;;;;;5099566;27;19938;-70
2023/10/26 05:13:22;;;;;;;;;;;11.20;99.90;;;;;;5110342;28;19962;-70
2023/10/26 05:15:48;;;;;;;;;;;11.20;99.90;;;;;;5108301;28;19911;-70
2023/10/26 05:18:14;;;;;;;;;;;11.20;99.90;;;;;;5111415;28;19919;-70
2023/10/26 05:20:39;;;;;;;;;;;11.30;99.90;;;;;;5110949;28;19912;-70
2023/10/26 05:23:06;;;;;;;;;;;11.20;99.90;;;;;;5111358;28;19916;-70
2023/10/26 05:25:32;;;;;;;;;;;11.20;99.90;;;;;;5111341;27;20618;-70
2023/10/26 05:27:59;;;;;;;;;;;11.20;99.90;;;;;;5111089;28;19939;-70
2023/10/26 05:30:25;;;;;;;;;;;11.30;99.90;;;;;;5111118;28;19911;-70
2023/10/26 05:32:50;;;;;;;;;;;11.20;99.90;;;;;;5111110;28;19964;-70
2023/10/26 05:35:18;;;;;;;;;;;11.20;99.90;;;;;;5111420;28;19908;-70
2023/10/26 05:37:44;;;;;;;;;;;11.20;99.90;;;;;;5110506;28;19908;-70
2023/10/26 05:40:10;;;;;;;;;;;11.20;99.90;;;;;;5114068;27;19915;-70
2023/10/26 05:42:35;;;;;;;;;;;11.20;99.90;;;;;;5113310;27;19916;-70
2023/10/26 05:45:01;;;;;;;;;;;11.20;99.90;;;;;;5121303;27;20756;-70
2023/10/26 05:47:26;;;;;;;;;;;11.20;99.90;;;;;;5122467;27;19918;-70
2023/10/26 05:49:52;;;;;;;;;;;11.20;99.90;;;;;;5117883;27;19916;-70
2023/10/26 05:52:17;;;;;;;;;;;11.20;99.90;;;;;;5125607;27;20014;-70
2023/10/26 05:54:43;;;;;;;;;;;11.20;99.90;;;;;;5111826;27;19950;-70
2023/10/26 05:57:08;;;;;;;;;;;11.20;99.90;;;;;;5116760;27;19994;-70
2023/10/26 05:59:34;;;;;;;;;;;11.20;99.90;;;;;;5101948;28;19916;-70
2023/10/26 06:01:59;;;;;;;;;;;11.20;99.90;;;;;;5115199;27;20013;-70
2023/10/26 06:04:26;;;;;;;;;;;11.20;99.90;;;;;;5103342;28;19965;-70
2023/10/26 06:06:51;;;;;;;;;;;11.20;99.90;;;;;;5109461;28;20454;-70
2023/10/26 06:09:19;;;;;;;;;;;11.20;99.90;;;;;;5109431;28;21377;-70
2023/10/26 06:11:44;;;;;;;;;;;11.20;99.90;;;;;;5101724;27;19961;-70
2023/10/26 06:14:10;;;;;;;;;;;11.20;99.90;;;;;;5111463;27;19916;-70
2023/10/26 06:16:35;;;;;;;;;;;11.20;99.90;;;;;;5109610;27;19977;-70
2023/10/26 06:19:01;;;;;;;;;;;11.20;99.90;;;;;;5102285;28;20082;-70
2023/10/26 06:21:27;;;;;;;;;;;11.20;99.90;;;;;;5124960;27;19915;-70
2023/10/26 06:23:53;;;;;;;;;;;11.20;99.90;;;;;;5117323;27;19920;-70
2023/10/26 06:26:19;;;;;;;;;;;11.20;99.90;;;;;;5110193;28;19994;-70
2023/10/26 06:28:46;;;;;;;;;;;11.20;99.90;;;;;;5107942;28;20257;-70
2023/10/26 06:31:15;;;;;;;;;;;11.20;99.90;;;;;;5109386;28;19915;-70
2023/10/26 06:33:41;;;;;;;;;;;11.20;99.90;;;;;;5107630;28;19911;-70
2023/10/26 06:36:08;;;;;;;;;;;11.20;99.90;;;;;;5117290;27;19930;-70
2023/10/26 06:38:34;;;;;;;;;;;11.20;99.90;;;;;;5109311;28;19911;-70
2023/10/26 06:40:59;;;;;;;;;;;11.20;99.90;;;;;;5109872;28;20336;-70
2023/10/26 06:43:25;;;;;;;;;;;11.20;99.90;;;;;;5118127;27;19938;-70
2023/10/26 06:45:51;;;;;;;;;;;11.20;99.90;;;;;;5108034;28;19913;-70
2023/10/26 06:48:18;;;;;;;;;;;11.20;99.90;;;;;;5108343;28;20388;-70
2023/10/26 06:50:47;;;;;;;;;;;11.20;99.90;;;;;;5109407;28;19995;-70
2023/10/26 06:53:13;;;;;;;;;;;11.20;99.90;;;;;;5098046;28;20304;-70
2023/10/26 06:55:38;;;;;;;;;;;11.20;99.90;;;;;;5098177;28;19908;-70
2023/10/26 06:58:07;;;;;;;;;;;11.20;99.90;;;;;;5117924;27;19947;-70
2023/10/26 07:00:34;;;;;;;;;;;11.20;99.90;;;;;;5089140;28;20004;-70
2023/10/26 07:02:59;;;;;;;;;;;11.20;99.90;;;;;;5100595;28;20361;-70
2023/10/26 07:05:25;;;;;;;;;;;11.20;99.90;;;;;;5113187;27;19922;-70
2023/10/26 07:07:51;;;;;;;;;;;11.20;99.90;;;;;;5120035;27;19908;-70
2023/10/26 07:10:18;;;;;;;;;;;11.20;99.90;;;;;;5120082;27;19911;-70
2023/10/26 07:12:44;;;;;;;;;;;11.20;99.90;;;;;;5113467;27;19911;-70
2023/10/26 07:15:09;;;;;;;;;;;11.20;99.90;;;;;;5109536;27;20368;-70
2023/10/26 07:17:35;;;;;;;;;;;11.20;99.90;;;;;;5115587;27;19968;-70
2023/10/26 07:20:04;;;;;;;;;;;11.20;99.90;;;;;;5107734;28;19911;-70
2023/10/26 07:22:32;;;;;;;;;;;11.20;99.90;;;;;;5099267;28;19964;-70
2023/10/26 07:24:57;;;;;;;;;;;11.20;99.90;;;;;;5112503;27;19915;-70
2023/10/26 07:27:23;;;;;;;;;;;11.20;99.90;;;;;;5099922;28;19968;-70
2023/10/26 07:29:48;;;;;;;;;;;11.20;99.90;;;;;;5113159;27;20348;-70
2023/10/26 07:32:14;;;;;;;;;;;11.20;99.90;;;;;;5100428;28;20450;-70
2023/10/26 07:34:40;;;;;;;;;;;11.20;99.90;;;;;;5117870;27;19932;-70
2023/10/26 07:37:06;;;;;;;;;;;11.20;99.90;;;;;;5116468;27;20302;-70
2023/10/26 07:39:35;;;;;;;;;;;11.20;99.90;;;;;;5108301;28;19908;-70
2023/10/26 07:42:00;;;;;;;;;;;11.20;99.90;;;;;;5116828;27;20411;-70
2023/10/26 07:44:26;;;;;;;;;;;11.20;99.90;;;;;;5111041;27;19912;-70
2023/10/26 07:46:52;;;;;;;;;;;11.20;99.90;;;;;;5108475;27;20022;-70
2023/10/26 07:49:17;;;;;;;;;;;11.20;99.90;;;;;;5111059;27;19911;-70
2023/10/26 07:51:43;;;;;;;;;;;11.20;99.90;;;;;;5109562;27;20388;-70
2023/10/26 07:54:09;;;;;;;;;;;11.20;99.90;;;;;;5118610;27;20271;-70
2023/10/26 07:56:35;;;;;;;;;;;11.30;99.90;;;;;;5118275;27;19918;-70
2023/10/26 07:59:00;;;;;;;;;;;11.30;99.90;;;;;;5112014;27;20347;-70
2023/10/26 08:01:26;;;;;;;;;;;11.30;99.90;;;;;;5116051;27;19911;-70
2023/10/26 08:03:51;;;;;;;;;;;11.30;99.90;;;;;;5106104;28;19919;-70
2023/10/26 08:06:17;;;;;;;;;;;11.30;99.90;;;;;;5099465;28;19911;-70
2023/10/26 08:08:42;;;;;;;;;;;11.30;99.90;;;;;;5107699;28;20627;-70
2023/10/26 08:11:12;;;;;;;;;;;11.30;99.90;;;;;;5108255;28;19920;-70
2023/10/26 08:13:38;;;;;;;;;;;11.30;99.90;;;;;;5108363;28;19942;-70
2023/10/26 08:16:04;;;;;;;;;;;11.30;99.90;;;;;;5107322;27;20360;-70
2023/10/26 08:18:29;;;;;;;;;;;11.40;99.90;;;;;;5099861;28;19957;-70
2023/10/26 08:20:55;;;;;;;;;;;11.40;99.90;;;;;;5139772;27;19912;-70
2023/10/26 08:23:20;;;;;;;;;;;11.40;99.90;;;;;;5107914;27;20021;-70
2023/10/26 08:25:47;;;;;;;;;;;11.40;99.90;;;;;;5097907;28;20415;-70
2023/10/26 08:28:13;;;;;;;;;;;11.40;99.90;;;;;;5115271;27;19951;-70
2023/10/26 08:30:39;;;;;;;;;;;11.40;99.90;;;;;;5104131;28;19972;-70
2023/10/26 08:33:04;;;;;;;;;;;11.40;99.90;;;;;;5100453;28;19911;-70
2023/10/26 08:35:33;;;;;;;;;;;11.40;99.90;;;;;;5106838;28;20328;-70
2023/10/26 08:37:59;;;;;;;;;;;11.40;99.90;;;;;;5110883;27;19911;-70
2023/10/26 08:40:24;;;;;;;;;;;11.40;99.90;;;;;;5112946;27;19923;-70
2023/10/26 08:42:50;;;;;;;;;;;11.40;99.90;;;;;;5110281;28;19915;-70
2023/10/26 08:45:23;;;;;;;;;;;11.40;99.90;;;;;;5107822;28;19916;-70
2023/10/26 08:47:50;;;;;;;;;;;11.40;99.90;;;;;;5098677;28;19908;-70
2023/10/26 08:50:19;;;;;;;;;;;11.40;99.90;;;;;;5108408;28;19919;-70
2023/10/26 08:52:45;;;;;;;;;;;11.40;99.90;;;;;;5106697;28;19938;-70
2023/10/26 08:55:11;;;;;;;;;;;11.40;99.90;;;;;;5112613;27;19912;-70
2023/10/26 08:57:46;;;;;;;;;;;11.40;99.90;;;;;;5107562;28;20006;-70
2023/10/26 09:00:14;;;;;;;;;;;11.40;99.90;;;;;;5106019;28;20010;-70
2023/10/26 09:02:39;;;;;;;;;;;11.40;99.90;;;;;;5101810;28;19963;-70
2023/10/26 09:05:08;;;;;;;;;;;11.40;99.90;;;;;;5110406;27;19950;-70
2023/10/26 09:07:33;;;;;;;;;;;11.40;99.90;;;;;;5106634;28;19916;-70
2023/10/26 09:09:59;;;;;;;;;;;11.40;99.90;;;;;;5105350;28;19934;-70
2023/10/26 09:12:24;;;;;;;;;;;11.40;99.90;;;;;;5101337;27;19912;-70
2023/10/26 09:14:57;;;;;;;;;;;11.40;99.90;;;;;;5109672;27;19998;-70
2023/10/26 09:17:27;;;;;;;;;;;11.40;99.90;;;;;;5105014;28;19918;-70
2023/10/26 09:19:52;;;;;;;;;;;11.40;99.90;;;;;;5099415;28;20427;-70
2023/10/26 09:22:18;;;;;;;;;;;11.40;99.90;;;;;;5092503;28;19916;-70
2023/10/26 09:24:43;;;;;;;;;;;11.40;99.90;;;;;;5101653;27;19938;-70
2023/10/26 09:27:17;;;;;;;;;;;11.40;99.90;;;;;;5097190;28;20591;-70
2023/10/26 09:29:43;;;;;;;;;;;11.40;99.90;;;;;;5097856;28;19912;-70
2023/10/26 09:32:08;;;;;;;;;;;11.40;99.90;;;;;;5098390;28;20059;-70
2023/10/26 09:34:39;;;;;;;;;;;11.40;99.90;;;;;;5102018;28;20674;-70
2023/10/26 09:37:06;;;;;;;;;;;11.40;99.90;;;;;;5098018;27;19954;-70
2023/10/26 09:39:35;;;;;;;;;;;11.40;99.90;;;;;;5097867;28;19919;-70
2023/10/26 09:42:01;;;;;;;;;;;11.50;99.90;;;;;;5108711;27;19918;-70
2023/10/26 09:44:27;;;;;;;;;;;11.50;99.90;;;;;;5097794;27;19919;-70
2023/10/26 09:46:53;;;;;;;;;;;11.50;99.90;;;;;;5114856;27;20298;-70
2023/10/26 09:49:19;;;;;;;;;;;11.50;99.90;;;;;;5089735;28;19912;-70
2023/10/26 09:51:45;;;;;;;;;;;11.50;99.90;;;;;;5107721;28;19928;-70
2023/10/26 09:54:12;;;;;;;;;;;11.50;99.90;;;;;;5097807;28;19926;-70
2023/10/26 09:56:39;;;;;;;;;;;11.50;99.90;;;;;;5106435;28;20355;-70
2023/10/26 09:59:05;;;;;;;;;;;11.50;99.90;;;;;;5089383;28;19920;-70
2023/10/26 10:01:39;;;;;;;;;;;11.60;99.90;;;;;;5096822;28;20117;-70
2023/10/26 10:04:06;;;;;;;;;;;11.60;99.90;;;;;;5097484;27;19927;-70
2023/10/26 10:06:50;;;;;;;;;;;11.60;99.90;;;;;;5089735;27;19909;-70
2023/10/26 10:09:18;;;;;;;;;;;11.60;99.90;;;;;;5094856;28;19912;-70
2023/10/26 10:11:44;;;;;;;;;;;11.60;99.90;;;;;;5109479;28;19965;-70
2023/10/26 10:14:29;;;;;;;;;;;11.70;99.90;;;;;;5115469;27;19912;-70
2023/10/26 10:16:55;;;;;;;;;;;11.70;99.90;;;;;;5110517;27;19912;-70
2023/10/26 10:19:21;;;;;;;;;;;11.80;99.90;;;;;;5104710;27;19938;-70
2023/10/26 10:21:48;;;;;;;;;;;11.70;99.90;;;;;;5111236;27;20393;-70
2023/10/26 10:24:32;;;;;;;;;;;11.80;99.90;;;;;;5107279;28;20387;-70
2023/10/26 10:27:06;;;;;;;;;;;11.90;99.90;;;;;;5109997;27;19920;-70
2023/10/26 10:29:32;;;;;;;;;;;11.90;99.90;;;;;;5106697;28;19912;-70
2023/10/26 10:31:57;;;;;;;;;;;12.00;99.90;;;;;;5107425;27;19941;-70
2023/10/26 10:34:25;;;;;;;;;;;12.00;99.90;;;;;;5108929;28;19914;-70
2023/10/26 10:37:09;;;;;;;;;;;12.00;99.90;;;;;;5108741;27;19916;-70
2023/10/26 10:39:35;;;;;;;;;;;12.00;99.90;;;;;;5108379;28;20769;-70
2023/10/26 10:42:01;;;;;;;;;;;12.00;99.90;;;;;;5108105;28;19915;-70
2023/10/26 10:44:27;;;;;;;;;;;12.00;99.90;;;;;;5107094;28;19915;-70
2023/10/26 10:46:52;;;;;;;;;;;12.00;99.90;;;;;;5107711;28;19916;-70
2023/10/26 10:49:23;;;;;;;;;;;12.00;99.90;;;;;;5109304;27;19956;-70
2023/10/26 10:51:49;;;;;;;;;;;12.00;99.90;;;;;;5117485;27;19922;-70
2023/10/26 10:54:17;;;;;;;;;;;12.00;99.90;;;;;;5097648;28;19912;-70
2023/10/26 10:56:43;;;;;;;;;;;12.10;99.90;;;;;;5107381;28;20026;-70
2023/10/26 10:59:19;;;;;;;;;;;12.10;99.90;;;;;;5104393;28;20402;-70
2023/10/26 11:01:45;;;;;;;;;;;12.10;99.90;;;;;;5108747;27;20357;-70
2023/10/26 11:04:13;;;;;;;;;;;12.10;99.90;;;;;;5095824;28;19924;-70
2023/10/26 11:06:46;;;;;;;;;;;12.10;99.90;;;;;;5088607;28;20007;-70
2023/10/26 11:09:20;;;;;;;;;;;12.20;99.90;;;;;;5100208;28;19907;-70
2023/10/26 11:11:46;;;;;;;;;;;12.20;99.90;;;;;;5100028;28;19912;-70
2023/10/26 11:14:12;;;;;;;;;;;12.30;99.90;;;;;;5114779;27;19959;-70
2023/10/26 11:16:38;;;;;;;;;;;12.30;99.90;;;;;;5103385;27;19912;-70
2023/10/26 11:19:04;;;;;;;;;;;12.40;99.90;;;;;;5108329;27;19912;-70
2023/10/26 11:21:29;;;;;;;;;;;12.50;99.90;;;;;;5115888;27;19919;-70
2023/10/26 11:23:55;;;;;;;;;;;12.50;99.90;;;;;;5108777;27;20319;-70
2023/10/26 11:26:20;;;;;;;;;;;12.50;99.80;;;;;;5114412;27;19911;-70
2023/10/26 11:28:46;;;;;;;;;;;12.60;99.80;;;;;;5104069;27;19911;-70
2023/10/26 11:31:11;;;;;;;;;;;12.60;99.70;;;;;;5100525;27;19994;-70
2023/10/26 11:33:39;;;;;;;;;;;12.70;99.70;;;;;;5113087;27;19911;-70
2023/10/26 11:36:09;;;;;;;;;;;12.70;99.60;;;;;;5095560;27;19923;-70
2023/10/26 11:38:35;;;;;;;;;;;12.70;99.60;;;;;;5104191;27;19974;-70
2023/10/26 11:41:00;;;;;;;;;;;12.70;99.60;;;;;;5106889;28;19957;-70
2023/10/26 11:43:30;;;;;;;;;;;12.80;99.60;;;;;;5109918;27;20399;-70
2023/10/26 11:45:55;;;;;;;;;;;12.80;99.50;;;;;;5103123;27;19912;-70
2023/10/26 11:48:27;;;;;;;;;;;12.80;99.60;;;;;;5107512;28;19919;-70
2023/10/26 11:50:53;;;;;;;;;;;12.80;99.50;;;;;;5108058;27;20454;-70
2023/10/26 11:53:22;;;;;;;;;;;12.80;99.50;;;;;;5109836;27;19912;-70
2023/10/26 11:55:48;;;;;;;;;;;12.90;99.50;;;;;;5113476;27;20302;-70
2023/10/26 11:58:14;;;;;;;;;;;12.90;99.50;;;;;;5093785;28;19911;-70
2023/10/26 12:00:41;;;;;;;;;;;12.90;99.60;;;;;;5103845;28;19964;-70
2023/10/26 12:03:07;;;;;;;;;;;13.00;99.40;;;;;;5111629;27;19916;-70
2023/10/26 12:05:33;;;;;;;;;;;13.00;99.50;;;;;;5109896;27;19922;-70
2023/10/26 12:07:58;;;;;;;;;;;13.00;99.60;;;;;;5109273;27;19927;-70
2023/10/26 12:10:24;;;;;;;;;;;13.00;99.40;;;;;;5105431;28;19968;-70
2023/10/26 12:12:50;;;;;;;;;;;13.00;99.20;;;;;;5118878;27;19907;-70
2023/10/26 12:15:16;;;;;;;;;;;13.00;99.30;;;;;;5107808;28;20015;-70
2023/10/26 12:17:42;;;;;;;;;;;13.00;99.30;;;;;;5108005;28;19915;-70
2023/10/26 12:20:08;;;;;;;;;;;13.10;99.40;;;;;;5115134;27;19911;-70
2023/10/26 12:22:34;;;;;;;;;;;13.00;99.20;;;;;;5108069;27;20062;-70
2023/10/26 12:25:04;;;;;;;;;;;13.00;99.30;;;;;;5088287;28;19951;-70
2023/10/26 12:27:30;;;;;;;;;;;13.10;99.30;;;;;;5119052;27;19972;-70
2023/10/26 12:29:55;;;;;;;;;;;13.10;99.30;;;;;;5114507;27;20385;-70
2023/10/26 12:32:21;;;;;;;;;;;13.00;99.30;;;;;;5105499;27;19957;-70
2023/10/26 12:34:47;;;;;;;;;;;13.10;99.30;;;;;;5099138;28;20296;-70
2023/10/26 12:37:12;;;;;;;;;;;13.10;99.30;;;;;;5100750;27;19911;-70
2023/10/26 12:39:38;;;;;;;;;;;13.10;99.30;;;;;;5114571;27;20010;-70
2023/10/26 12:42:03;;;;;;;;;;;13.10;99.30;;;;;;5106220;27;19992;-70
2023/10/26 12:44:29;;;;;;;;;;;13.10;99.30;;;;;;5122327;27;20651;-70
2023/10/26 12:46:54;;;;;;;;;;;13.10;99.40;;;;;;5111504;27;19908;-70
2023/10/26 12:49:23;;;;;;;;;;;13.20;99.30;;;;;;5108778;28;19918;-70
2023/10/26 12:51:49;;;;;;;;;;;13.10;99.30;;;;;;5110235;28;20064;-70
2023/10/26 12:54:15;;;;;;;;;;;13.20;99.40;;;;;;5109731;27;19908;-70
2023/10/26 12:56:40;;;;;;;;;;;13.20;99.40;;;;;;5110035;28;19918;-70
2023/10/26 12:59:06;;;;;;;;;;;13.20;99.30;;;;;;5105047;28;19962;-70
2023/10/26 13:01:31;;;;;;;;;;;13.20;99.20;;;;;;5109980;28;20155;-70
2023/10/26 13:03:57;;;;;;;;;;;13.20;99.20;;;;;;5110949;28;20391;-70
2023/10/26 13:06:22;;;;;;;;;;;13.30;99.40;;;;;;5110729;28;19911;-70
2023/10/26 13:08:48;;;;;;;;;;;13.30;99.20;;;;;;5110778;28;19919;-70
2023/10/26 13:11:16;;;;;;;;;;;13.30;99.10;;;;;;5111279;28;19927;-70
2023/10/26 13:13:42;;;;;;;;;;;13.40;99.00;;;;;;5118081;27;19911;-70
2023/10/26 13:16:10;;;;;;;;;;;13.40;99.00;;;;;;5110808;28;19912;-70
2023/10/26 13:18:39;;;;;;;;;;;13.40;98.90;;;;;;5111008;28;20351;-70
2023/10/26 13:21:05;;;;;;;;;;;13.40;98.80;;;;;;5119530;27;19908;-70
2023/10/26 13:23:31;;;;;;;;;;;13.50;98.80;;;;;;5110987;28;19915;-70
2023/10/26 13:25:57;;;;;;;;;;;13.50;98.90;;;;;;5119015;27;20602;-70
2023/10/26 13:28:23;;;;;;;;;;;13.50;98.90;;;;;;5110594;28;19959;-70
2023/10/26 13:30:48;;;;;;;;;;;13.50;98.70;;;;;;5110732;27;20336;-70
2023/10/26 13:33:14;;;;;;;;;;;13.60;98.80;;;;;;5115046;27;19918;-70
2023/10/26 13:35:40;;;;;;;;;;;13.60;98.80;;;;;;5119057;27;19918;-70
2023/10/26 13:38:12;;;;;;;;;;;13.60;98.90;;;;;;5108427;28;19912;-70
2023/10/26 13:40:38;;;;;;;;;;;13.60;98.70;;;;;;5119386;27;19911;-70
2023/10/26 13:43:03;;;;;;;;;;;13.60;98.80;;;;;;5113387;27;20491;-70
2023/10/26 13:45:29;;;;;;;;;;;13.60;98.70;;;;;;5110525;27;20049;-70
2023/10/26 13:47:54;;;;;;;;;;;13.60;98.60;;;;;;5114251;27;19908;-70
2023/10/26 13:50:20;;;;;;;;;;;13.60;98.60;;;;;;5124494;27;19911;-70
2023/10/26 13:52:45;;;;;;;;;;;13.60;98.60;;;;;;5121167;27;19939;-70
2023/10/26 13:55:11;;;;;;;;;;;13.60;98.70;;;;;;5110146;28;19999;-70
2023/10/26 13:57:36;;;;;;;;;;;13.60;98.70;;;;;;5109275;28;19915;-70
2023/10/26 14:00:06;;;;;;;;;;;13.60;98.80;;;;;;5108813;27;20462;-70
2023/10/26 14:02:32;;;;;;;;;;;13.50;98.80;;;;;;5114673;27;19912;-70
2023/10/26 14:04:57;;;;;;;;;;;13.50;98.90;;;;;;5108588;28;19918;-70
2023/10/26 14:07:23;;;;;;;;;;;13.50;99.00;;;;;;5109845;28;19914;-70
2023/10/26 14:09:48;;;;;;;;;;;13.50;99.00;;;;;;5116826;27;19911;-70
2023/10/26 14:12:14;;;;;;;;;;;13.50;99.10;;;;;;5110023;28;19919;-70